ウラジオストク の空港の天気 - METARとTAF

ウラジオストク空港 ( UHWW / VVO ) - ロシア ウラジオストク
飛行場実況気象(Metar)
観測時間04/26 02:00 +10 (04/25 16:00 UTC)
風向・風速西北西 1m/s
視程10km以上
天気現象
なし
気温2℃
湿度93%
気圧1015hPa
METARUHWW 251600Z 30001MPS 9999 NSC 02/01 Q1015 R25L/0///70 NOSIG RMK QFE760
過去の天気等 Google飛行場航空写真 Wunderground天気予報

過去48時間のMETAR

飛行場予報(TAF)
発表時間: 4/25 23:50 +10 (4/25 13:50 UTC)
予報対象時間: 26日1時 +10 ~ 27日1時 +10
風向・風速西 3m/s
視程10km以上
全天の8割程度の積乱雲 雲底高度 910m
26日12時 +10 から
風向・風速西南西 3m/s
視程5,000m
天気現象弱いしゅう雨
全天の8割程度の積乱雲 雲底高度 610m
26日14時 +10 ~ 26日16時 +10 に徐々に
風向・風速西 3m/s
TAF UHWW 251350Z 2515/2615 28003MPS 9999 BKN030CB
FM260200 25003MPS 5000 -SHRA BKN020CB
BECMG 2604/2606 28003MPS